No particular awareness of the weather is required.    There are no Weather-warnings


Meteo18 Weather Cam more information Meteo18 Weather Cam


Thunder radar more information blitzortung!


Rain radar more information rain snow radar


Visit our other weather sites:

Template documentation
and downloads

And another site



Weather Underground History page Text

Daily Summary for December 4, 2017 Units:  Both    English   Metric
« Previous Day
Next Day »
Daily Weekly Monthly Yearly Custom
  High: Low: Average:
Temperature: 42.3 °F /  5.7 °C 34.3 °F /  1.3 °C 38.7 °F /  3.7 °C
Dew Point: 41.7 °F /  5.4 °C 33.6 °F /  0.9 °C 38.1 °F /  3.4 °C
Humidity: 98 % 97 % 98 %
Wind Speed: 5 mph /  8.0 km/h - 0.8 mph /  1.3 km/h
Wind Gust: 8 mph /  12.9 km/h - -
Wind:- - SW
Pressure: 30.7 in /  1038.1 hPa 30.5 in /  1031.4 hPa -
Precipitation: 0.02 in /  0.5 mm    
Historical Graphs
 
 
Tabular Data for December 4, 2017
Time Temperature Dew Point Pressure Wind Wind Speed Wind Gust Humidity Rainfall Rate (Hourly)
00:02 34.3 °F /  1.3 °C 33.6 °F /  0.9 °C 30.5 in /  1031.4 hPa West 1 mph /  1.6 km/h 2 mph /  3.2 km/h 97 % 0 in /  0.0 mm
00:12 34.3 °F /  1.3 °C 33.6 °F /  0.9 °C 30.5 in /  1031.4 hPa Calm   3 mph /  4.8 km/h 97 % 0 in /  0.0 mm
00:17 34.3 °F /  1.3 °C 33.6 °F /  0.9 °C 30.5 in /  1031.4 hPa Calm   3 mph /  4.8 km/h 97 % 0 in /  0.0 mm
00:22 34.5 °F /  1.4 °C 33.8 °F /  1.0 °C 30.5 in /  1031.7 hPa Calm   2 mph /  3.2 km/h 97 % 0 in /  0.0 mm
00:32 34.5 °F /  1.4 °C 33.8 °F /  1.0 °C 30.5 in /  1031.7 hPa Calm   2 mph /  3.2 km/h 97 % 0 in /  0.0 mm
00:42 34.5 °F /  1.4 °C 33.8 °F /  1.0 °C 30.5 in /  1031.7 hPa Calm   2 mph /  3.2 km/h 97 % 0 in /  0.0 mm
00:47 34.5 °F /  1.4 °C 33.8 °F /  1.0 °C 30.5 in /  1031.7 hPa Calm   2 mph /  3.2 km/h 97 % 0 in /  0.0 mm
00:52 34.7 °F /  1.5 °C 34 °F /  1.1 °C 30.5 in /  1031.7 hPa Calm   2 mph /  3.2 km/h 97 % 0 in /  0.0 mm
00:57 34.7 °F /  1.5 °C 34 °F /  1.1 °C 30.5 in /  1031.7 hPa WSW 1 mph /  1.6 km/h 2 mph /  3.2 km/h 97 % 0 in /  0.0 mm
01:02 34.9 °F /  1.6 °C 34.2 °F /  1.2 °C 30.5 in /  1031.7 hPa Calm   2 mph /  3.2 km/h 97 % 0 in /  0.0 mm
01:07 34.9 °F /  1.6 °C 34.2 °F /  1.2 °C 30.5 in /  1031.7 hPa Calm   2 mph /  3.2 km/h 97 % 0 in /  0.0 mm
01:12 34.9 °F /  1.6 °C 34.2 °F /  1.2 °C 30.5 in /  1031.7 hPa Calm   1 mph /  1.6 km/h 97 % 0 in /  0.0 mm
01:17 34.9 °F /  1.6 °C 34.2 °F /  1.2 °C 30.5 in /  1031.7 hPa Calm     97 % 0 in /  0.0 mm
01:22 34.9 °F /  1.6 °C 34.2 °F /  1.2 °C 30.5 in /  1031.7 hPa Calm   1 mph /  1.6 km/h 97 % 0.01 in /  0.3 mm
01:27 34.9 °F /  1.6 °C 34.2 °F /  1.2 °C 30.5 in /  1031.7 hPa Calm   1 mph /  1.6 km/h 97 % 0.01 in /  0.3 mm
01:32 35.1 °F /  1.7 °C 34.3 °F /  1.3 °C 30.5 in /  1031.7 hPa Calm   1 mph /  1.6 km/h 97 % 0.01 in /  0.3 mm
01:37 35.1 °F /  1.7 °C 34.3 °F /  1.3 °C 30.5 in /  1031.7 hPa Calm   1 mph /  1.6 km/h 97 % 0.01 in /  0.3 mm
01:42 35.1 °F /  1.7 °C 34.3 °F /  1.3 °C 30.5 in /  1031.7 hPa SW 1 mph /  1.6 km/h 1 mph /  1.6 km/h 97 % 0.01 in /  0.3 mm
01:47 35.2 °F /  1.8 °C 34.5 °F /  1.4 °C 30.5 in /  1031.7 hPa Calm   1 mph /  1.6 km/h 97 % 0.01 in /  0.3 mm
01:52 35.2 °F /  1.8 °C 34.5 °F /  1.4 °C 30.5 in /  1031.7 hPa Calm   1 mph /  1.6 km/h 97 % 0.01 in /  0.3 mm
01:57 35.2 °F /  1.8 °C 34.5 °F /  1.4 °C 30.5 in /  1031.7 hPa Calm   1 mph /  1.6 km/h 97 % 0.01 in /  0.3 mm
02:02 35.2 °F /  1.8 °C 34.5 °F /  1.4 °C 30.5 in /  1031.7 hPa Calm     97 % 0.01 in /  0.3 mm
02:07 35.2 °F /  1.8 °C 34.5 °F /  1.4 °C 30.5 in /  1031.7 hPa Calm     97 % 0.01 in /  0.3 mm
02:12 35.2 °F /  1.8 °C 34.5 °F /  1.4 °C 30.5 in /  1031.7 hPa Calm     97 % 0.01 in /  0.3 mm
02:17 35.2 °F /  1.8 °C 34.5 °F /  1.4 °C 30.5 in /  1031.7 hPa Calm     97 % 0.01 in /  0.3 mm
02:22 35.2 °F /  1.8 °C 34.5 °F /  1.4 °C 30.5 in /  1031.7 hPa Calm     97 % 0 in /  0.0 mm
02:27 35.2 °F /  1.8 °C 34.5 °F /  1.4 °C 30.5 in /  1032.1 hPa Calm     97 % 0 in /  0.0 mm
02:32 35.2 °F /  1.8 °C 34.5 °F /  1.4 °C 30.5 in /  1031.7 hPa Calm     97 % 0 in /  0.0 mm
02:37 35.2 °F /  1.8 °C 34.5 °F /  1.4 °C 30.5 in /  1032.1 hPa Calm     97 % 0 in /  0.0 mm
02:42 35.4 °F /  1.9 °C 34.7 °F /  1.5 °C 30.5 in /  1032.1 hPa Calm     97 % 0 in /  0.0 mm
02:47 35.4 °F /  1.9 °C 34.7 °F /  1.5 °C 30.5 in /  1032.1 hPa Calm     97 % 0 in /  0.0 mm
02:52 35.4 °F /  1.9 °C 34.7 °F /  1.5 °C 30.5 in /  1032.1 hPa Calm     97 % 0 in /  0.0 mm
02:57 35.4 °F /  1.9 °C 34.7 °F /  1.5 °C 30.5 in /  1032.1 hPa Calm     97 % 0 in /  0.0 mm
03:02 35.4 °F /  1.9 °C 34.7 °F /  1.5 °C 30.5 in /  1032.1 hPa Calm     97 % 0 in /  0.0 mm
03:12 35.6 °F /  2.0 °C 34.9 °F /  1.6 °C 30.5 in /  1032.1 hPa Calm     97 % 0 in /  0.0 mm
03:17 35.8 °F /  2.1 °C 35.1 °F /  1.7 °C 30.5 in /  1032.1 hPa Calm     97 % 0 in /  0.0 mm
03:22 35.8 °F /  2.1 °C 35.1 °F /  1.7 °C 30.5 in /  1032.1 hPa Calm     97 % 0 in /  0.0 mm
03:27 35.8 °F /  2.1 °C 35.1 °F /  1.7 °C 30.5 in /  1032.1 hPa Calm     97 % 0 in /  0.0 mm
03:32 35.8 °F /  2.1 °C 35.1 °F /  1.7 °C 30.5 in /  1032.1 hPa Calm     97 % 0 in /  0.0 mm
03:37 36 °F /  2.2 °C 35.2 °F /  1.8 °C 30.5 in /  1032.1 hPa SSW 1 mph /  1.6 km/h   97 % 0 in /  0.0 mm
03:42 36.1 °F /  2.3 °C 35.4 °F /  1.9 °C 30.5 in /  1032.1 hPa WSW 1 mph /  1.6 km/h 1 mph /  1.6 km/h 97 % 0 in /  0.0 mm
03:52 36.3 °F /  2.4 °C 35.6 °F /  2.0 °C 30.5 in /  1032.1 hPa Calm   2 mph /  3.2 km/h 97 % 0 in /  0.0 mm
03:57 36.3 °F /  2.4 °C 35.6 °F /  2.0 °C 30.5 in /  1032.1 hPa WSW 1 mph /  1.6 km/h 2 mph /  3.2 km/h 97 % 0.01 in /  0.3 mm
04:02 36.3 °F /  2.4 °C 35.6 °F /  2.0 °C 30.5 in /  1032.1 hPa SW 1 mph /  1.6 km/h 2 mph /  3.2 km/h 97 % 0.01 in /  0.3 mm
04:07 36.3 °F /  2.4 °C 35.6 °F /  2.0 °C 30.5 in /  1032.1 hPa WSW 2 mph /  3.2 km/h 2 mph /  3.2 km/h 97 % 0.01 in /  0.3 mm
04:22 36.3 °F /  2.4 °C 35.6 °F /  2.0 °C 30.5 in /  1032.1 hPa West 1 mph /  1.6 km/h 4 mph /  6.4 km/h 97 % 0.01 in /  0.3 mm
04:27 36.5 °F /  2.5 °C 35.8 °F /  2.1 °C 30.5 in /  1032.1 hPa Calm   3 mph /  4.8 km/h 97 % 0.01 in /  0.3 mm
04:32 36.3 °F /  2.4 °C 35.6 °F /  2.0 °C 30.5 in /  1032.1 hPa SW 1 mph /  1.6 km/h 2 mph /  3.2 km/h 97 % 0.01 in /  0.3 mm
04:37 36.3 °F /  2.4 °C 35.6 °F /  2.0 °C 30.5 in /  1032.1 hPa Calm   1 mph /  1.6 km/h 97 % 0.01 in /  0.3 mm
04:42 36.3 °F /  2.4 °C 35.6 °F /  2.0 °C 30.5 in /  1032.1 hPa SSW 1 mph /  1.6 km/h 1 mph /  1.6 km/h 97 % 0.01 in /  0.3 mm
04:47 36.3 °F /  2.4 °C 35.6 °F /  2.0 °C 30.5 in /  1032.1 hPa Calm   1 mph /  1.6 km/h 97 % 0.01 in /  0.3 mm
04:52 36.3 °F /  2.4 °C 35.6 °F /  2.0 °C 30.5 in /  1032.1 hPa Calm   1 mph /  1.6 km/h 97 % 0.01 in /  0.3 mm
04:57 36.3 °F /  2.4 °C 35.6 °F /  2.0 °C 30.5 in /  1032.1 hPa Calm   1 mph /  1.6 km/h 97 % 0 in /  0.0 mm
05:02 36.3 °F /  2.4 °C 35.6 °F /  2.0 °C 30.5 in /  1032.1 hPa Calm   1 mph /  1.6 km/h 97 % 0 in /  0.0 mm
05:07 36.3 °F /  2.4 °C 35.6 °F /  2.0 °C 30.5 in /  1032.1 hPa Calm   1 mph /  1.6 km/h 97 % 0 in /  0.0 mm
05:12 36.5 °F /  2.5 °C 35.8 °F /  2.1 °C 30.5 in /  1032.1 hPa Calm   1 mph /  1.6 km/h 97 % 0 in /  0.0 mm
05:17 36.5 °F /  2.5 °C 35.8 °F /  2.1 °C 30.5 in /  1032.4 hPa Calm   1 mph /  1.6 km/h 97 % 0 in /  0.0 mm
05:22 36.3 °F /  2.4 °C 35.6 °F /  2.0 °C 30.5 in /  1032.4 hPa SSW 2 mph /  3.2 km/h 2 mph /  3.2 km/h 97 % 0 in /  0.0 mm
05:32 36.5 °F /  2.5 °C 35.8 °F /  2.1 °C 30.5 in /  1032.4 hPa SSW 1 mph /  1.6 km/h 2 mph /  3.2 km/h 97 % 0 in /  0.0 mm
05:42 36.7 °F /  2.6 °C 36 °F /  2.2 °C 30.5 in /  1032.4 hPa Calm   2 mph /  3.2 km/h 97 % 0.01 in /  0.3 mm
05:47 36.7 °F /  2.6 °C 36 °F /  2.2 °C 30.5 in /  1032.4 hPa SE 1 mph /  1.6 km/h 1 mph /  1.6 km/h 97 % 0.01 in /  0.3 mm
05:52 36.7 °F /  2.6 °C 36 °F /  2.2 °C 30.5 in /  1032.4 hPa Calm   1 mph /  1.6 km/h 97 % 0.01 in /  0.3 mm
05:57 36.7 °F /  2.6 °C 36 °F /  2.2 °C 30.5 in /  1032.4 hPa Calm   1 mph /  1.6 km/h 97 % 0.01 in /  0.3 mm
06:02 36.7 °F /  2.6 °C 36 °F /  2.2 °C 30.5 in /  1032.4 hPa Calm   1 mph /  1.6 km/h 97 % 0.01 in /  0.3 mm
06:12 36.7 °F /  2.6 °C 36 °F /  2.2 °C 30.5 in /  1032.4 hPa Calm   1 mph /  1.6 km/h 97 % 0.01 in /  0.3 mm
06:17 36.7 °F /  2.6 °C 36 °F /  2.2 °C 30.5 in /  1032.7 hPa Calm   1 mph /  1.6 km/h 97 % 0.01 in /  0.3 mm
06:22 36.7 °F /  2.6 °C 36 °F /  2.2 °C 30.5 in /  1032.7 hPa SW 1 mph /  1.6 km/h 1 mph /  1.6 km/h 97 % 0.01 in /  0.3 mm
06:27 36.7 °F /  2.6 °C 36 °F /  2.2 °C 30.5 in /  1032.7 hPa SW 1 mph /  1.6 km/h 2 mph /  3.2 km/h 97 % 0.01 in /  0.3 mm
06:32 36.7 °F /  2.6 °C 36 °F /  2.2 °C 30.5 in /  1032.7 hPa Calm   2 mph /  3.2 km/h 97 % 0.01 in /  0.3 mm
06:37 36.7 °F /  2.6 °C 36 °F /  2.2 °C 30.5 in /  1032.7 hPa SW 1 mph /  1.6 km/h 2 mph /  3.2 km/h 97 % 0.01 in /  0.3 mm
06:42 36.9 °F /  2.7 °C 36.1 °F /  2.3 °C 30.5 in /  1032.7 hPa WSW 1 mph /  1.6 km/h 2 mph /  3.2 km/h 97 % 0 in /  0.0 mm
06:47 36.9 °F /  2.7 °C 36.1 °F /  2.3 °C 30.5 in /  1033.1 hPa Calm   2 mph /  3.2 km/h 97 % 0 in /  0.0 mm
06:52 36.9 °F /  2.7 °C 36.1 °F /  2.3 °C 30.5 in /  1033.1 hPa Calm   2 mph /  3.2 km/h 97 % 0 in /  0.0 mm
06:57 36.9 °F /  2.7 °C 36.1 °F /  2.3 °C 30.5 in /  1033.1 hPa Calm   2 mph /  3.2 km/h 97 % 0 in /  0.0 mm
07:02 36.9 °F /  2.7 °C 36.1 °F /  2.3 °C 30.5 in /  1033.1 hPa Calm   1 mph /  1.6 km/h 97 % 0 in /  0.0 mm
07:07 36.9 °F /  2.7 °C 36.1 °F /  2.3 °C 30.5 in /  1033.1 hPa Calm   1 mph /  1.6 km/h 97 % 0 in /  0.0 mm
07:12 36.9 °F /  2.7 °C 36.1 °F /  2.3 °C 30.5 in /  1033.1 hPa Calm   1 mph /  1.6 km/h 97 % 0 in /  0.0 mm
07:22 36.9 °F /  2.7 °C 36.1 °F /  2.3 °C 30.5 in /  1033.1 hPa SW 1 mph /  1.6 km/h 2 mph /  3.2 km/h 97 % 0 in /  0.0 mm
07:27 36.9 °F /  2.7 °C 36.1 °F /  2.3 °C 30.5 in /  1033.1 hPa SSW 1 mph /  1.6 km/h 4 mph /  6.4 km/h 97 % 0 in /  0.0 mm
07:32 36.9 °F /  2.7 °C 36.1 °F /  2.3 °C 30.5 in /  1033.1 hPa SW 3 mph /  4.8 km/h 4 mph /  6.4 km/h 97 % 0 in /  0.0 mm
07:37 36.9 °F /  2.7 °C 36.1 °F /  2.3 °C 30.5 in /  1033.1 hPa WSW 2 mph /  3.2 km/h 4 mph /  6.4 km/h 97 % 0 in /  0.0 mm
07:42 37 °F /  2.8 °C 36.3 °F /  2.4 °C 30.5 in /  1033.1 hPa SW 2 mph /  3.2 km/h 4 mph /  6.4 km/h 97 % 0 in /  0.0 mm
07:47 37 °F /  2.8 °C 36.3 °F /  2.4 °C 30.5 in /  1033.4 hPa SW 2 mph /  3.2 km/h 4 mph /  6.4 km/h 97 % 0 in /  0.0 mm
07:52 37 °F /  2.8 °C 36.3 °F /  2.4 °C 30.5 in /  1033.4 hPa SW 2 mph /  3.2 km/h 3 mph /  4.8 km/h 97 % 0 in /  0.0 mm
07:57 37 °F /  2.8 °C 36.3 °F /  2.4 °C 30.5 in /  1033.4 hPa West 1 mph /  1.6 km/h 4 mph /  6.4 km/h 97 % 0 in /  0.0 mm
08:02 37 °F /  2.8 °C 36.3 °F /  2.4 °C 30.5 in /  1033.7 hPa West 2 mph /  3.2 km/h 4 mph /  6.4 km/h 97 % 0 in /  0.0 mm
08:07 37 °F /  2.8 °C 36.3 °F /  2.4 °C 30.5 in /  1033.7 hPa WNW 1 mph /  1.6 km/h 4 mph /  6.4 km/h 97 % 0 in /  0.0 mm
08:12 37 °F /  2.8 °C 36.5 °F /  2.5 °C 30.5 in /  1033.7 hPa Calm   4 mph /  6.4 km/h 98 % 0 in /  0.0 mm
08:17 37.2 °F /  2.9 °C 36.7 °F /  2.6 °C 30.5 in /  1033.7 hPa WSW 2 mph /  3.2 km/h 4 mph /  6.4 km/h 98 % 0 in /  0.0 mm
08:22 37.2 °F /  2.9 °C 36.7 °F /  2.6 °C 30.5 in /  1033.7 hPa WSW 1 mph /  1.6 km/h 3 mph /  4.8 km/h 98 % 0 in /  0.0 mm
08:27 37.2 °F /  2.9 °C 36.7 °F /  2.6 °C 30.5 in /  1033.7 hPa SW 1 mph /  1.6 km/h 3 mph /  4.8 km/h 98 % 0 in /  0.0 mm
08:32 37.2 °F /  2.9 °C 36.7 °F /  2.6 °C 30.5 in /  1033.7 hPa SSW 1 mph /  1.6 km/h 2 mph /  3.2 km/h 98 % 0 in /  0.0 mm
08:42 37.2 °F /  2.9 °C 36.7 °F /  2.6 °C 30.5 in /  1033.7 hPa SW 2 mph /  3.2 km/h 5 mph /  8.0 km/h 98 % 0 in /  0.0 mm
08:47 37.2 °F /  2.9 °C 36.7 °F /  2.6 °C 30.5 in /  1033.7 hPa SSW 2 mph /  3.2 km/h 5 mph /  8.0 km/h 98 % 0 in /  0.0 mm
08:52 37.4 °F /  3.0 °C 36.9 °F /  2.7 °C 30.5 in /  1033.7 hPa SW 3 mph /  4.8 km/h 5 mph /  8.0 km/h 98 % 0 in /  0.0 mm
08:57 37.4 °F /  3.0 °C 36.9 °F /  2.7 °C 30.5 in /  1034.1 hPa SW 2 mph /  3.2 km/h 5 mph /  8.0 km/h 98 % 0 in /  0.0 mm
09:02 37.6 °F /  3.1 °C 37 °F /  2.8 °C 30.5 in /  1034.1 hPa SW 5 mph /  8.0 km/h 5 mph /  8.0 km/h 98 % 0 in /  0.0 mm
09:07 37.6 °F /  3.1 °C 37 °F /  2.8 °C 30.5 in /  1034.1 hPa WSW 3 mph /  4.8 km/h 6 mph /  9.7 km/h 98 % 0 in /  0.0 mm
09:12 37.6 °F /  3.1 °C 37 °F /  2.8 °C 30.5 in /  1034.1 hPa WSW 1 mph /  1.6 km/h 6 mph /  9.7 km/h 98 % 0 in /  0.0 mm
09:22 37.8 °F /  3.2 °C 37.2 °F /  2.9 °C 30.5 in /  1034.4 hPa WSW 1 mph /  1.6 km/h 4 mph /  6.4 km/h 98 % 0 in /  0.0 mm
09:27 37.8 °F /  3.2 °C 37.2 °F /  2.9 °C 30.5 in /  1034.4 hPa Calm   4 mph /  6.4 km/h 98 % 0 in /  0.0 mm
09:32 37.9 °F /  3.3 °C 37.4 °F /  3.0 °C 30.5 in /  1034.4 hPa Calm   4 mph /  6.4 km/h 98 % 0 in /  0.0 mm
09:42 37.9 °F /  3.3 °C 37.4 °F /  3.0 °C 30.6 in /  1034.8 hPa SSW 1 mph /  1.6 km/h 1 mph /  1.6 km/h 98 % 0 in /  0.0 mm
09:47 37.9 °F /  3.3 °C 37.4 °F /  3.0 °C 30.6 in /  1034.8 hPa Calm   1 mph /  1.6 km/h 98 % 0 in /  0.0 mm
09:57 38.1 °F /  3.4 °C 37.6 °F /  3.1 °C 30.6 in /  1034.8 hPa SW 2 mph /  3.2 km/h 5 mph /  8.0 km/h 98 % 0 in /  0.0 mm
10:02 38.1 °F /  3.4 °C 37.6 °F /  3.1 °C 30.6 in /  1034.8 hPa SW 4 mph /  6.4 km/h 5 mph /  8.0 km/h 98 % 0 in /  0.0 mm
10:07 38.1 °F /  3.4 °C 37.6 °F /  3.1 °C 30.6 in /  1034.8 hPa SW 1 mph /  1.6 km/h 5 mph /  8.0 km/h 98 % 0 in /  0.0 mm
10:12 38.1 °F /  3.4 °C 37.6 °F /  3.1 °C 30.6 in /  1034.8 hPa SW 2 mph /  3.2 km/h 5 mph /  8.0 km/h 98 % 0 in /  0.0 mm
10:17 38.1 °F /  3.4 °C 37.6 °F /  3.1 °C 30.6 in /  1034.8 hPa Calm   5 mph /  8.0 km/h 98 % 0 in /  0.0 mm
10:22 38.3 °F /  3.5 °C 37.8 °F /  3.2 °C 30.6 in /  1034.8 hPa SW 1 mph /  1.6 km/h 5 mph /  8.0 km/h 98 % 0 in /  0.0 mm
10:27 38.3 °F /  3.5 °C 37.8 °F /  3.2 °C 30.6 in /  1035.1 hPa WSW 1 mph /  1.6 km/h 5 mph /  8.0 km/h 98 % 0 in /  0.0 mm
10:32 38.5 °F /  3.6 °C 37.9 °F /  3.3 °C 30.6 in /  1035.1 hPa SW 1 mph /  1.6 km/h 4 mph /  6.4 km/h 98 % 0 in /  0.0 mm
10:37 38.5 °F /  3.6 °C 37.9 °F /  3.3 °C 30.6 in /  1035.1 hPa SW 1 mph /  1.6 km/h 4 mph /  6.4 km/h 98 % 0 in /  0.0 mm
10:42 38.5 °F /  3.6 °C 37.9 °F /  3.3 °C 30.6 in /  1035.1 hPa SSW 3 mph /  4.8 km/h 4 mph /  6.4 km/h 98 % 0 in /  0.0 mm
10:52 38.7 °F /  3.7 °C 38.1 °F /  3.4 °C 30.6 in /  1035.1 hPa SW 1 mph /  1.6 km/h 5 mph /  8.0 km/h 98 % 0 in /  0.0 mm
10:57 38.7 °F /  3.7 °C 38.1 °F /  3.4 °C 30.6 in /  1035.1 hPa SW 2 mph /  3.2 km/h 5 mph /  8.0 km/h 98 % 0 in /  0.0 mm
11:02 38.7 °F /  3.7 °C 38.1 °F /  3.4 °C 30.6 in /  1035.4 hPa SW 1 mph /  1.6 km/h 5 mph /  8.0 km/h 98 % 0 in /  0.0 mm
11:07 38.8 °F /  3.8 °C 38.3 °F /  3.5 °C 30.6 in /  1035.4 hPa SW 2 mph /  3.2 km/h 4 mph /  6.4 km/h 98 % 0 in /  0.0 mm
11:12 38.8 °F /  3.8 °C 38.3 °F /  3.5 °C 30.6 in /  1035.1 hPa SW 1 mph /  1.6 km/h 4 mph /  6.4 km/h 98 % 0 in /  0.0 mm
11:17 38.8 °F /  3.8 °C 38.3 °F /  3.5 °C 30.6 in /  1035.4 hPa SSW 1 mph /  1.6 km/h 4 mph /  6.4 km/h 98 % 0 in /  0.0 mm
11:22 38.8 °F /  3.8 °C 38.3 °F /  3.5 °C 30.6 in /  1035.1 hPa South 1 mph /  1.6 km/h 4 mph /  6.4 km/h 98 % 0 in /  0.0 mm
11:27 39 °F /  3.9 °C 38.5 °F /  3.6 °C 30.6 in /  1035.1 hPa SW 3 mph /  4.8 km/h 3 mph /  4.8 km/h 98 % 0 in /  0.0 mm
11:32 39 °F /  3.9 °C 38.5 °F /  3.6 °C 30.6 in /  1035.4 hPa SSW 3 mph /  4.8 km/h 4 mph /  6.4 km/h 98 % 0 in /  0.0 mm
11:37 39 °F /  3.9 °C 38.5 °F /  3.6 °C 30.6 in /  1035.1 hPa SW 3 mph /  4.8 km/h 4 mph /  6.4 km/h 98 % 0 in /  0.0 mm
11:42 39.2 °F /  4.0 °C 38.7 °F /  3.7 °C 30.6 in /  1035.1 hPa SW 3 mph /  4.8 km/h 4 mph /  6.4 km/h 98 % 0 in /  0.0 mm
11:47 39.2 °F /  4.0 °C 38.7 °F /  3.7 °C 30.6 in /  1035.1 hPa SSW 2 mph /  3.2 km/h 7 mph /  11.3 km/h 98 % 0 in /  0.0 mm
11:52 39.2 °F /  4.0 °C 38.7 °F /  3.7 °C 30.6 in /  1035.1 hPa SSW 4 mph /  6.4 km/h 7 mph /  11.3 km/h 98 % 0 in /  0.0 mm
11:57 39.4 °F /  4.1 °C 38.8 °F /  3.8 °C 30.6 in /  1035.1 hPa SW 2 mph /  3.2 km/h 7 mph /  11.3 km/h 98 % 0 in /  0.0 mm
12:02 39.4 °F /  4.1 °C 38.8 °F /  3.8 °C 30.6 in /  1035.1 hPa SSW 2 mph /  3.2 km/h 5 mph /  8.0 km/h 98 % 0 in /  0.0 mm
12:12 39.7 °F /  4.3 °C 39.2 °F /  4.0 °C 30.6 in /  1035.1 hPa SW 1 mph /  1.6 km/h 7 mph /  11.3 km/h 98 % 0 in /  0.0 mm
12:17 39.7 °F /  4.3 °C 39.2 °F /  4.0 °C 30.6 in /  1035.1 hPa WSW 3 mph /  4.8 km/h 6 mph /  9.7 km/h 98 % 0 in /  0.0 mm
12:22 39.7 °F /  4.3 °C 39.2 °F /  4.0 °C 30.6 in /  1035.1 hPa Calm   6 mph /  9.7 km/h 98 % 0 in /  0.0 mm
12:27 39.9 °F /  4.4 °C 39.4 °F /  4.1 °C 30.6 in /  1035.1 hPa SW 3 mph /  4.8 km/h 6 mph /  9.7 km/h 98 % 0 in /  0.0 mm
12:32 39.9 °F /  4.4 °C 39.4 °F /  4.1 °C 30.6 in /  1035.1 hPa SSW 5 mph /  8.0 km/h 6 mph /  9.7 km/h 98 % 0 in /  0.0 mm
12:37 39.9 °F /  4.4 °C 39.4 °F /  4.1 °C 30.6 in /  1035.1 hPa SSW 4 mph /  6.4 km/h 6 mph /  9.7 km/h 98 % 0 in /  0.0 mm
12:47 39.9 °F /  4.4 °C 39.4 °F /  4.1 °C 30.6 in /  1035.1 hPa SW 3 mph /  4.8 km/h 8 mph /  12.9 km/h 98 % 0 in /  0.0 mm
12:52 39.9 °F /  4.4 °C 39.4 °F /  4.1 °C 30.6 in /  1035.1 hPa SW 2 mph /  3.2 km/h 8 mph /  12.9 km/h 98 % 0 in /  0.0 mm
12:57 39.9 °F /  4.4 °C 39.4 °F /  4.1 °C 30.6 in /  1035.1 hPa SW 3 mph /  4.8 km/h 6 mph /  9.7 km/h 98 % 0 in /  0.0 mm
13:02 40.1 °F /  4.5 °C 39.6 °F /  4.2 °C 30.6 in /  1035.1 hPa SW 3 mph /  4.8 km/h 6 mph /  9.7 km/h 98 % 0 in /  0.0 mm
13:07 40.1 °F /  4.5 °C 39.6 °F /  4.2 °C 30.6 in /  1035.1 hPa Calm   6 mph /  9.7 km/h 98 % 0 in /  0.0 mm
13:12 40.3 °F /  4.6 °C 39.7 °F /  4.3 °C 30.6 in /  1035.1 hPa WSW 3 mph /  4.8 km/h 6 mph /  9.7 km/h 98 % 0 in /  0.0 mm
13:17 40.5 °F /  4.7 °C 39.9 °F /  4.4 °C 30.6 in /  1035.1 hPa WSW 3 mph /  4.8 km/h 6 mph /  9.7 km/h 98 % 0 in /  0.0 mm
13:22 40.6 °F /  4.8 °C 40.1 °F /  4.5 °C 30.6 in /  1035.1 hPa West 2 mph /  3.2 km/h 6 mph /  9.7 km/h 98 % 0 in /  0.0 mm
13:27 40.8 °F /  4.9 °C 40.3 °F /  4.6 °C 30.6 in /  1035.1 hPa WSW 3 mph /  4.8 km/h 6 mph /  9.7 km/h 98 % 0 in /  0.0 mm
13:32 40.8 °F /  4.9 °C 40.3 °F /  4.6 °C 30.6 in /  1035.1 hPa SW 2 mph /  3.2 km/h 6 mph /  9.7 km/h 98 % 0 in /  0.0 mm
13:37 41.2 °F /  5.1 °C 40.6 °F /  4.8 °C 30.6 in /  1035.1 hPa SW 3 mph /  4.8 km/h 6 mph /  9.7 km/h 98 % 0 in /  0.0 mm
13:42 41.2 °F /  5.1 °C 40.6 °F /  4.8 °C 30.6 in /  1035.1 hPa Calm   6 mph /  9.7 km/h 98 % 0 in /  0.0 mm
13:47 41.4 °F /  5.2 °C 40.8 °F /  4.9 °C 30.6 in /  1035.1 hPa West 1 mph /  1.6 km/h 4 mph /  6.4 km/h 98 % 0 in /  0.0 mm
13:52 41.4 °F /  5.2 °C 40.8 °F /  4.9 °C 30.6 in /  1034.8 hPa Calm   3 mph /  4.8 km/h 98 % 0 in /  0.0 mm
13:57 41.5 °F /  5.3 °C 41 °F /  5.0 °C 30.6 in /  1035.1 hPa WSW 3 mph /  4.8 km/h 4 mph /  6.4 km/h 98 % 0 in /  0.0 mm
14:02 41.5 °F /  5.3 °C 41 °F /  5.0 °C 30.6 in /  1035.1 hPa West 3 mph /  4.8 km/h 5 mph /  8.0 km/h 98 % 0 in /  0.0 mm
14:12 41.7 °F /  5.4 °C 41.2 °F /  5.1 °C 30.6 in /  1035.1 hPa West 1 mph /  1.6 km/h 5 mph /  8.0 km/h 98 % 0 in /  0.0 mm
14:17 41.9 °F /  5.5 °C 41.4 °F /  5.2 °C 30.6 in /  1035.1 hPa Calm   4 mph /  6.4 km/h 98 % 0 in /  0.0 mm
14:22 42.1 °F /  5.6 °C 41.5 °F /  5.3 °C 30.6 in /  1035.1 hPa Calm   3 mph /  4.8 km/h 98 % 0 in /  0.0 mm
14:27 42.1 °F /  5.6 °C 41.5 °F /  5.3 °C 30.6 in /  1034.8 hPa Calm   3 mph /  4.8 km/h 98 % 0 in /  0.0 mm
14:32 42.3 °F /  5.7 °C 41.7 °F /  5.4 °C 30.6 in /  1034.8 hPa Calm   2 mph /  3.2 km/h 98 % 0 in /  0.0 mm
14:42 42.3 °F /  5.7 °C 41.7 °F /  5.4 °C 30.6 in /  1035.1 hPa Calm   2 mph /  3.2 km/h 98 % 0 in /  0.0 mm
14:47 42.3 °F /  5.7 °C 41.7 °F /  5.4 °C 30.6 in /  1035.1 hPa SSW 2 mph /  3.2 km/h 3 mph /  4.8 km/h 98 % 0 in /  0.0 mm
14:52 42.1 °F /  5.6 °C 41.5 °F /  5.3 °C 30.6 in /  1035.1 hPa Calm   3 mph /  4.8 km/h 98 % 0 in /  0.0 mm
14:57 42.3 °F /  5.7 °C 41.7 °F /  5.4 °C 30.6 in /  1035.1 hPa SW 4 mph /  6.4 km/h 4 mph /  6.4 km/h 98 % 0 in /  0.0 mm
15:02 42.3 °F /  5.7 °C 41.7 °F /  5.4 °C 30.6 in /  1035.1 hPa SW 2 mph /  3.2 km/h 4 mph /  6.4 km/h 98 % 0 in /  0.0 mm
15:07 42.1 °F /  5.6 °C 41.5 °F /  5.3 °C 30.6 in /  1035.1 hPa SW 4 mph /  6.4 km/h 4 mph /  6.4 km/h 98 % 0 in /  0.0 mm
15:12 42.1 °F /  5.6 °C 41.5 °F /  5.3 °C 30.6 in /  1035.1 hPa SSW 3 mph /  4.8 km/h 5 mph /  8.0 km/h 98 % 0 in /  0.0 mm
15:17 42.1 °F /  5.6 °C 41.5 °F /  5.3 °C 30.6 in /  1035.1 hPa SW 1 mph /  1.6 km/h 5 mph /  8.0 km/h 98 % 0 in /  0.0 mm
15:22 42.1 °F /  5.6 °C 41.5 °F /  5.3 °C 30.6 in /  1035.1 hPa SW 3 mph /  4.8 km/h 5 mph /  8.0 km/h 98 % 0 in /  0.0 mm
15:27 42.1 °F /  5.6 °C 41.5 °F /  5.3 °C 30.6 in /  1035.1 hPa WSW 3 mph /  4.8 km/h 5 mph /  8.0 km/h 98 % 0 in /  0.0 mm
15:32 42.1 °F /  5.6 °C 41.5 °F /  5.3 °C 30.6 in /  1035.1 hPa West 3 mph /  4.8 km/h 5 mph /  8.0 km/h 98 % 0 in /  0.0 mm
15:37 41.9 °F /  5.5 °C 41.4 °F /  5.2 °C 30.6 in /  1035.4 hPa West 3 mph /  4.8 km/h 5 mph /  8.0 km/h 98 % 0 in /  0.0 mm
15:42 41.9 °F /  5.5 °C 41.4 °F /  5.2 °C 30.6 in /  1035.4 hPa WSW 3 mph /  4.8 km/h 5 mph /  8.0 km/h 98 % 0 in /  0.0 mm
15:47 41.9 °F /  5.5 °C 41.4 °F /  5.2 °C 30.6 in /  1035.4 hPa West 2 mph /  3.2 km/h 5 mph /  8.0 km/h 98 % 0 in /  0.0 mm
15:52 41.9 °F /  5.5 °C 41.4 °F /  5.2 °C 30.6 in /  1035.4 hPa West 3 mph /  4.8 km/h 5 mph /  8.0 km/h 98 % 0 in /  0.0 mm
16:02 41.9 °F /  5.5 °C 41.4 °F /  5.2 °C 30.6 in /  1035.4 hPa West 2 mph /  3.2 km/h 5 mph /  8.0 km/h 98 % 0 in /  0.0 mm
16:12 41.7 °F /  5.4 °C 41.2 °F /  5.1 °C 30.6 in /  1035.4 hPa WSW 2 mph /  3.2 km/h 5 mph /  8.0 km/h 98 % 0 in /  0.0 mm
16:17 41.7 °F /  5.4 °C 41.2 °F /  5.1 °C 30.6 in /  1035.4 hPa Calm   5 mph /  8.0 km/h 98 % 0 in /  0.0 mm
16:22 41.7 °F /  5.4 °C 41.2 °F /  5.1 °C 30.6 in /  1035.4 hPa SSW 1 mph /  1.6 km/h 4 mph /  6.4 km/h 98 % 0 in /  0.0 mm
16:27 41.9 °F /  5.5 °C 41.4 °F /  5.2 °C 30.6 in /  1035.4 hPa WSW 1 mph /  1.6 km/h 4 mph /  6.4 km/h 98 % 0 in /  0.0 mm
16:32 41.9 °F /  5.5 °C 41.4 °F /  5.2 °C 30.6 in /  1035.4 hPa Calm   4 mph /  6.4 km/h 98 % 0 in /  0.0 mm
16:42 41.9 °F /  5.5 °C 41.4 °F /  5.2 °C 30.6 in /  1035.8 hPa Calm   3 mph /  4.8 km/h 98 % 0 in /  0.0 mm
16:47 41.9 °F /  5.5 °C 41.4 °F /  5.2 °C 30.6 in /  1035.8 hPa Calm   1 mph /  1.6 km/h 98 % 0 in /  0.0 mm
16:52 41.9 °F /  5.5 °C 41.4 °F /  5.2 °C 30.6 in /  1035.8 hPa Calm   1 mph /  1.6 km/h 98 % 0 in /  0.0 mm
17:02 42.1 °F /  5.6 °C 41.5 °F /  5.3 °C 30.6 in /  1035.8 hPa WNW 2 mph /  3.2 km/h 2 mph /  3.2 km/h 98 % 0 in /  0.0 mm
17:07 42.1 °F /  5.6 °C 41.5 °F /  5.3 °C 30.6 in /  1035.8 hPa WNW 2 mph /  3.2 km/h 3 mph /  4.8 km/h 98 % 0 in /  0.0 mm
17:12 42.1 °F /  5.6 °C 41.5 °F /  5.3 °C 30.6 in /  1035.8 hPa WNW 1 mph /  1.6 km/h 3 mph /  4.8 km/h 98 % 0 in /  0.0 mm
17:17 42.1 °F /  5.6 °C 41.5 °F /  5.3 °C 30.6 in /  1035.8 hPa Calm   3 mph /  4.8 km/h 98 % 0 in /  0.0 mm
17:22 42.1 °F /  5.6 °C 41.5 °F /  5.3 °C 30.6 in /  1035.8 hPa Calm   2 mph /  3.2 km/h 98 % 0 in /  0.0 mm
17:32 42.1 °F /  5.6 °C 41.5 °F /  5.3 °C 30.6 in /  1036.1 hPa West 1 mph /  1.6 km/h 3 mph /  4.8 km/h 98 % 0 in /  0.0 mm
17:37 42.1 °F /  5.6 °C 41.5 °F /  5.3 °C 30.6 in /  1036.1 hPa Calm   3 mph /  4.8 km/h 98 % 0 in /  0.0 mm
17:47 42.1 °F /  5.6 °C 41.5 °F /  5.3 °C 30.6 in /  1036.1 hPa Calm   2 mph /  3.2 km/h 98 % 0 in /  0.0 mm
17:52 42.1 °F /  5.6 °C 41.5 °F /  5.3 °C 30.6 in /  1036.1 hPa Calm   1 mph /  1.6 km/h 98 % 0 in /  0.0 mm
17:57 42.1 °F /  5.6 °C 41.5 °F /  5.3 °C 30.6 in /  1036.1 hPa Calm   2 mph /  3.2 km/h 98 % 0 in /  0.0 mm
18:02 42.1 °F /  5.6 °C 41.5 °F /  5.3 °C 30.6 in /  1036.5 hPa Calm   2 mph /  3.2 km/h 98 % 0 in /  0.0 mm
18:07 42.1 °F /  5.6 °C 41.5 °F /  5.3 °C 30.6 in /  1036.5 hPa Calm   2 mph /  3.2 km/h 98 % 0 in /  0.0 mm
18:12 42.1 °F /  5.6 °C 41.5 °F /  5.3 °C 30.6 in /  1036.5 hPa Calm   1 mph /  1.6 km/h 98 % 0 in /  0.0 mm
18:17 42.1 °F /  5.6 °C 41.5 °F /  5.3 °C 30.6 in /  1036.5 hPa Calm   1 mph /  1.6 km/h 98 % 0 in /  0.0 mm
18:22 42.1 °F /  5.6 °C 41.5 °F /  5.3 °C 30.6 in /  1036.5 hPa Calm   1 mph /  1.6 km/h 98 % 0 in /  0.0 mm
18:32 42.1 °F /  5.6 °C 41.5 °F /  5.3 °C 30.6 in /  1036.5 hPa Calm   2 mph /  3.2 km/h 98 % 0 in /  0.0 mm
18:42 41.7 °F /  5.4 °C 41.2 °F /  5.1 °C 30.6 in /  1036.5 hPa Calm   2 mph /  3.2 km/h 98 % 0 in /  0.0 mm
18:47 41.7 °F /  5.4 °C 41.2 °F /  5.1 °C 30.6 in /  1036.5 hPa West 1 mph /  1.6 km/h 2 mph /  3.2 km/h 98 % 0 in /  0.0 mm
18:57 41.5 °F /  5.3 °C 41 °F /  5.0 °C 30.6 in /  1036.5 hPa Calm   3 mph /  4.8 km/h 98 % 0 in /  0.0 mm
19:02 41.4 °F /  5.2 °C 40.8 °F /  4.9 °C 30.6 in /  1036.5 hPa Calm   2 mph /  3.2 km/h 98 % 0 in /  0.0 mm
19:07 41.4 °F /  5.2 °C 40.8 °F /  4.9 °C 30.6 in /  1036.5 hPa Calm   1 mph /  1.6 km/h 98 % 0 in /  0.0 mm
19:12 41.2 °F /  5.1 °C 40.6 °F /  4.8 °C 30.6 in /  1036.8 hPa Calm   1 mph /  1.6 km/h 98 % 0 in /  0.0 mm
19:17 41.4 °F /  5.2 °C 40.8 °F /  4.9 °C 30.6 in /  1036.8 hPa Calm     98 % 0 in /  0.0 mm
19:27 41.4 °F /  5.2 °C 40.8 °F /  4.9 °C 30.6 in /  1036.8 hPa Calm     98 % 0 in /  0.0 mm
19:32 41.2 °F /  5.1 °C 40.6 °F /  4.8 °C 30.6 in /  1037.1 hPa Calm     98 % 0 in /  0.0 mm
19:37 41.2 °F /  5.1 °C 40.6 °F /  4.8 °C 30.6 in /  1037.1 hPa Calm     98 % 0 in /  0.0 mm
19:42 41.2 °F /  5.1 °C 40.6 °F /  4.8 °C 30.6 in /  1037.1 hPa Calm     98 % 0 in /  0.0 mm
19:47 41.2 °F /  5.1 °C 40.6 °F /  4.8 °C 30.6 in /  1037.1 hPa Calm   1 mph /  1.6 km/h 98 % 0 in /  0.0 mm
19:52 41.2 °F /  5.1 °C 40.6 °F /  4.8 °C 30.6 in /  1037.1 hPa Calm   1 mph /  1.6 km/h 98 % 0 in /  0.0 mm
20:02 41.2 °F /  5.1 °C 40.6 °F /  4.8 °C 30.6 in /  1037.1 hPa Calm   1 mph /  1.6 km/h 98 % 0 in /  0.0 mm
20:07 41.2 °F /  5.1 °C 40.6 °F /  4.8 °C 30.6 in /  1037.5 hPa Calm   2 mph /  3.2 km/h 98 % 0 in /  0.0 mm
20:12 41.2 °F /  5.1 °C 40.6 °F /  4.8 °C 30.6 in /  1037.1 hPa Calm   2 mph /  3.2 km/h 98 % 0 in /  0.0 mm
20:17 41.2 °F /  5.1 °C 40.6 °F /  4.8 °C 30.6 in /  1037.1 hPa Calm   2 mph /  3.2 km/h 98 % 0 in /  0.0 mm
20:22 41.2 °F /  5.1 °C 40.6 °F /  4.8 °C 30.6 in /  1037.5 hPa Calm   1 mph /  1.6 km/h 98 % 0 in /  0.0 mm
20:27 41.2 °F /  5.1 °C 40.6 °F /  4.8 °C 30.6 in /  1037.5 hPa Calm   2 mph /  3.2 km/h 98 % 0 in /  0.0 mm
20:32 41.2 °F /  5.1 °C 40.6 °F /  4.8 °C 30.6 in /  1037.1 hPa Calm   2 mph /  3.2 km/h 98 % 0 in /  0.0 mm
20:37 41.2 °F /  5.1 °C 40.6 °F /  4.8 °C 30.6 in /  1037.1 hPa Calm   2 mph /  3.2 km/h 98 % 0 in /  0.0 mm
20:42 41.2 °F /  5.1 °C 40.6 °F /  4.8 °C 30.6 in /  1037.1 hPa Calm   2 mph /  3.2 km/h 98 % 0 in /  0.0 mm
20:47 41.2 °F /  5.1 °C 40.6 °F /  4.8 °C 30.6 in /  1037.1 hPa Calm   1 mph /  1.6 km/h 98 % 0 in /  0.0 mm
20:52 41.2 °F /  5.1 °C 40.6 °F /  4.8 °C 30.6 in /  1037.1 hPa Calm   1 mph /  1.6 km/h 98 % 0 in /  0.0 mm
21:02 41 °F /  5.0 °C 40.5 °F /  4.7 °C 30.6 in /  1037.1 hPa Calm     98 % 0 in /  0.0 mm
21:12 40.5 °F /  4.7 °C 39.9 °F /  4.4 °C 30.6 in /  1037.5 hPa Calm     98 % 0 in /  0.0 mm
21:17 40.1 °F /  4.5 °C 39.6 °F /  4.2 °C 30.6 in /  1037.5 hPa Calm     98 % 0 in /  0.0 mm
21:22 39.7 °F /  4.3 °C 39.2 °F /  4.0 °C 30.6 in /  1037.5 hPa Calm     98 % 0 in /  0.0 mm
21:27 39.6 °F /  4.2 °C 38.8 °F /  3.8 °C 30.6 in /  1037.5 hPa Calm     97 % 0 in /  0.0 mm
21:32 39.6 °F /  4.2 °C 39 °F /  3.9 °C 30.6 in /  1037.5 hPa Calm     98 % 0 in /  0.0 mm
21:42 39.4 °F /  4.1 °C 38.8 °F /  3.8 °C 30.6 in /  1037.5 hPa Calm     98 % 0 in /  0.0 mm
21:47 39 °F /  3.9 °C 38.5 °F /  3.6 °C 30.6 in /  1037.8 hPa Calm     98 % 0 in /  0.0 mm
21:52 38.8 °F /  3.8 °C 38.3 °F /  3.5 °C 30.6 in /  1037.8 hPa Calm     98 % 0 in /  0.0 mm
21:57 38.7 °F /  3.7 °C 37.9 °F /  3.3 °C 30.6 in /  1037.8 hPa Calm     97 % 0 in /  0.0 mm
22:02 38.5 °F /  3.6 °C 37.9 °F /  3.3 °C 30.6 in /  1037.8 hPa Calm     98 % 0 in /  0.0 mm
22:07 38.5 °F /  3.6 °C 37.9 °F /  3.3 °C 30.6 in /  1037.8 hPa Calm     98 % 0 in /  0.0 mm
22:12 38.3 °F /  3.5 °C 37.8 °F /  3.2 °C 30.6 in /  1037.8 hPa Calm     98 % 0 in /  0.0 mm
22:17 38.1 °F /  3.4 °C 37.6 °F /  3.1 °C 30.6 in /  1037.8 hPa Calm     98 % 0 in /  0.0 mm
22:22 38.1 °F /  3.4 °C 37.6 °F /  3.1 °C 30.6 in /  1037.8 hPa Calm     98 % 0 in /  0.0 mm
22:27 38.1 °F /  3.4 °C 37.6 °F /  3.1 °C 30.6 in /  1037.8 hPa Calm     98 % 0 in /  0.0 mm
22:32 37.9 °F /  3.3 °C 37.4 °F /  3.0 °C 30.6 in /  1037.8 hPa Calm     98 % 0 in /  0.0 mm
22:42 37.9 °F /  3.3 °C 37.4 °F /  3.0 °C 30.6 in /  1037.8 hPa Calm   1 mph /  1.6 km/h 98 % 0 in /  0.0 mm
22:47 37.9 °F /  3.3 °C 37.4 °F /  3.0 °C 30.6 in /  1037.8 hPa Calm   1 mph /  1.6 km/h 98 % 0 in /  0.0 mm
22:52 38.1 °F /  3.4 °C 37.6 °F /  3.1 °C 30.6 in /  1037.8 hPa Calm   1 mph /  1.6 km/h 98 % 0 in /  0.0 mm
23:02 38.5 °F /  3.6 °C 37.9 °F /  3.3 °C 30.6 in /  1037.8 hPa Calm   1 mph /  1.6 km/h 98 % 0 in /  0.0 mm
23:07 38.3 °F /  3.5 °C 37.8 °F /  3.2 °C 30.7 in /  1038.1 hPa Calm   1 mph /  1.6 km/h 98 % 0 in /  0.0 mm
23:12 38.3 °F /  3.5 °C 37.8 °F /  3.2 °C 30.7 in /  1038.1 hPa Calm   1 mph /  1.6 km/h 98 % 0 in /  0.0 mm
23:17 38.3 °F /  3.5 °C 37.8 °F /  3.2 °C 30.7 in /  1038.1 hPa Calm   1 mph /  1.6 km/h 98 % 0 in /  0.0 mm
23:22 38.3 °F /  3.5 °C 37.8 °F /  3.2 °C 30.7 in /  1038.1 hPa WNW 1 mph /  1.6 km/h 1 mph /  1.6 km/h 98 % 0 in /  0.0 mm
23:27 38.5 °F /  3.6 °C 37.9 °F /  3.3 °C 30.7 in /  1038.1 hPa Calm   1 mph /  1.6 km/h 98 % 0 in /  0.0 mm
23:32 38.5 °F /  3.6 °C 37.9 °F /  3.3 °C 30.7 in /  1038.1 hPa Calm   1 mph /  1.6 km/h 98 % 0 in /  0.0 mm
23:37 38.5 °F /  3.6 °C 37.9 °F /  3.3 °C 30.7 in /  1038.1 hPa Calm   1 mph /  1.6 km/h 98 % 0 in /  0.0 mm
23:42 38.7 °F /  3.7 °C 38.1 °F /  3.4 °C 30.7 in /  1038.1 hPa WNW 1 mph /  1.6 km/h 1 mph /  1.6 km/h 98 % 0 in /  0.0 mm
23:47 38.7 °F /  3.7 °C 38.1 °F /  3.4 °C 30.7 in /  1038.1 hPa Calm   1 mph /  1.6 km/h 98 % 0 in /  0.0 mm
23:52 38.5 °F /  3.6 °C 37.9 °F /  3.3 °C 30.7 in /  1038.1 hPa Calm   1 mph /  1.6 km/h 98 % 0 in /  0.0 mm
23:57 38.7 °F /  3.7 °C 38.1 °F /  3.4 °C 30.7 in /  1038.1 hPa SW 1 mph /  1.6 km/h 1 mph /  1.6 km/h 98 % 0 in /  0.0 mm
Meteo18
Compliments of Weather Underground - 4 mb

Script developed by  Jim McMurry - jmcmurry@mwt.net Adapted for the template by  Wim van der Kuil - Leuven-Template.eu

You find our weather info also at:

European Weather Network

Weather Underground

Equipment we use:

Weather-station
Davis Vue

Weather-program
Meteohub

Weather-server
Raspberry PI 2 B+

Provider
1 and 1

Davis Vue

Meteohub

Raspberry PI 2 B+

1 and 1